createdAt,value
2019-03-29T00:00:37.183Z,12.10
2019-03-29T00:03:06.185Z,12.40
2019-03-29T00:05:34.609Z,8.73
2019-03-29T00:08:02.884Z,9.50
2019-03-29T00:10:31.243Z,13.43
2019-03-29T00:12:59.655Z,10.33
2019-03-29T00:15:27.921Z,11.13
2019-03-29T00:17:56.259Z,10.20
2019-03-29T00:20:24.614Z,9.37
2019-03-29T00:22:52.907Z,9.40
2019-03-29T00:25:21.543Z,9.17
2019-03-29T00:27:49.734Z,10.33
2019-03-29T00:30:18.004Z,9.20
2019-03-29T00:32:46.265Z,9.00
2019-03-29T00:35:14.784Z,11.23
2019-03-29T00:37:53.536Z,10.57
2019-03-29T00:40:13.862Z,9.07
2019-03-29T00:42:42.972Z,9.90
2019-03-29T00:45:11.459Z,8.67
2019-03-29T00:47:39.814Z,10.10
2019-03-29T00:50:08.227Z,8.30
2019-03-29T00:52:36.614Z,8.90
2019-03-29T00:55:05.198Z,10.53
2019-03-29T00:57:33.939Z,9.43
2019-03-29T01:00:02.232Z,10.73
2019-03-29T01:02:30.924Z,10.17
2019-03-29T01:04:59.186Z,8.00
2019-03-29T01:07:29.296Z,8.37
2019-03-29T01:09:59.065Z,9.60
2019-03-29T01:12:29.800Z,9.37
2019-03-29T01:15:00.394Z,10.30
2019-03-29T01:17:47.788Z,11.03
2019-03-29T01:20:16.371Z,9.07
2019-03-29T01:22:44.675Z,9.93
2019-03-29T01:25:13.559Z,11.20
2019-03-29T01:27:41.929Z,8.53
2019-03-29T01:30:10.417Z,8.50
2019-03-29T01:32:38.725Z,10.17
2019-03-29T01:35:07.432Z,8.97
2019-03-29T01:37:35.760Z,8.97
2019-03-29T01:40:04.506Z,9.70
2019-03-29T01:42:36.292Z,12.50
2019-03-29T01:45:06.408Z,9.93
2019-03-29T01:47:35.103Z,9.47
2019-03-29T01:50:04.569Z,11.27
2019-03-29T01:52:33.666Z,8.50
2019-03-29T01:55:03.884Z,6.67
2019-03-29T01:57:35.795Z,7.33
2019-03-29T02:00:05.641Z,8.67
2019-03-29T02:07:33.420Z,10.27
2019-03-29T02:15:12.218Z,9.60
2019-03-29T02:17:42.777Z,10.03
2019-03-29T02:20:11.796Z,8.47
2019-03-29T02:22:40.795Z,9.47
2019-03-29T02:25:10.171Z,8.73
2019-03-29T02:27:39.112Z,7.43
2019-03-29T02:30:09.588Z,8.07
2019-03-29T02:32:38.711Z,9.23
2019-03-29T02:35:08.100Z,9.30
2019-03-29T02:37:37.775Z,10.10
2019-03-29T02:40:09.833Z,11.87
2019-03-29T02:42:38.813Z,9.30
2019-03-29T02:45:08.153Z,8.87
2019-03-29T02:47:37.054Z,9.83
2019-03-29T02:50:07.540Z,9.63
2019-03-29T02:52:36.734Z,10.43
2019-03-29T02:55:05.821Z,9.87
2019-03-29T02:57:34.212Z,12.73
2019-03-29T03:00:04.867Z,14.57
2019-03-29T03:02:34.207Z,13.30
2019-03-29T03:05:02.438Z,10.93
2019-03-29T03:07:32.251Z,11.13
2019-03-29T03:10:02.449Z,11.40
2019-03-29T03:12:31.791Z,10.63
2019-03-29T03:15:00.909Z,11.87
2019-03-29T03:17:30.301Z,10.70
2019-03-29T03:19:58.596Z,11.80
2019-03-29T03:22:31.594Z,10.27
2019-03-29T03:25:01.500Z,9.10
2019-03-29T03:27:29.716Z,11.97
2019-03-29T03:30:01.404Z,13.17
2019-03-29T03:32:31.491Z,9.90
2019-03-29T03:35:00.866Z,10.87
2019-03-29T03:37:37.149Z,15.13
2019-03-29T03:40:11.578Z,12.97
2019-03-29T03:42:40.501Z,10.50
2019-03-29T03:48:19.155Z,9.70
2019-03-29T03:50:48.628Z,11.37
2019-03-29T03:53:17.172Z,10.13
2019-03-29T03:55:45.958Z,11.93
2019-03-29T03:58:15.574Z,12.83
2019-03-29T04:00:52.384Z,11.73
2019-03-29T04:03:20.947Z,12.73
2019-03-29T04:05:55.359Z,12.30
2019-03-29T04:08:23.725Z,11.27
2019-03-29T04:10:52.279Z,11.03
2019-03-29T04:13:20.631Z,11.00
2019-03-29T04:15:48.984Z,12.50
2019-03-29T04:18:17.247Z,12.67
2019-03-29T04:20:45.782Z,13.83
2019-03-29T04:23:14.074Z,11.77
2019-03-29T04:25:42.309Z,10.30
2019-03-29T04:28:10.920Z,12.63
2019-03-29T04:30:39.199Z,14.10
2019-03-29T04:33:11.095Z,15.60
2019-03-29T04:35:37.621Z,10.77
2019-03-29T04:38:07.521Z,12.60
2019-03-29T04:40:40.211Z,10.00
2019-03-29T04:43:08.451Z,13.90
2019-03-29T04:45:36.855Z,14.57
2019-03-29T04:48:05.139Z,15.73
2019-03-29T04:50:33.505Z,12.27
2019-03-29T04:53:01.782Z,15.23
2019-03-29T04:55:51.851Z,11.33
2019-03-29T04:58:20.185Z,9.70
2019-03-29T05:00:48.631Z,11.83
2019-03-29T05:03:17.218Z,13.37
2019-03-29T05:05:45.627Z,19.33
2019-03-29T05:08:13.944Z,14.33
2019-03-29T05:10:42.449Z,14.97
2019-03-29T05:13:10.713Z,13.70
2019-03-29T05:15:39.123Z,11.90
2019-03-29T05:18:08.527Z,12.00
2019-03-29T05:20:36.775Z,12.77
2019-03-29T05:23:04.982Z,11.80
2019-03-29T05:25:33.271Z,15.60
2019-03-29T05:28:01.475Z,14.00
2019-03-29T05:30:30.165Z,13.93
2019-03-29T05:33:11.195Z,16.43
2019-03-29T05:35:39.704Z,15.47
2019-03-29T05:38:09.391Z,13.97
2019-03-29T05:40:37.650Z,13.43
2019-03-29T05:43:05.933Z,14.53
2019-03-29T05:45:36.227Z,16.93
2019-03-29T05:48:27.311Z,12.40
2019-03-29T05:50:55.555Z,16.47
2019-03-29T05:53:24.091Z,14.13
2019-03-29T05:56:23.764Z,14.17
2019-03-29T05:58:52.022Z,17.03
2019-03-29T06:01:20.328Z,13.67
2019-03-29T06:03:48.795Z,12.13
2019-03-29T06:06:17.125Z,14.33
2019-03-29T06:08:46.787Z,16.80
2019-03-29T06:11:17.295Z,17.53
2019-03-29T06:13:53.326Z,14.20
2019-03-29T06:16:22.584Z,13.53
2019-03-29T06:23:18.658Z,13.77
2019-03-29T06:26:22.273Z,16.47
2019-03-29T06:29:50.805Z,13.20
2019-03-29T06:32:34.732Z,13.77
2019-03-29T06:35:19.754Z,11.97
2019-03-29T06:38:01.079Z,11.20
2019-03-29T06:41:20.988Z,16.47
2019-03-29T06:55:00.584Z,11.13
2019-03-29T06:57:31.871Z,13.70
2019-03-29T07:00:06.959Z,14.27
2019-03-29T07:03:28.310Z,11.30
2019-03-29T07:06:19.048Z,13.40
2019-03-29T07:08:47.858Z,12.53
2019-03-29T07:11:24.595Z,15.60
2019-03-29T07:14:18.314Z,19.90
2019-03-29T07:16:59.406Z,17.20
2019-03-29T07:19:54.728Z,18.20
2019-03-29T07:27:02.259Z,15.47
2019-03-29T07:29:37.948Z,14.73
2019-03-29T07:32:07.489Z,12.97
2019-03-29T07:34:52.380Z,13.70
2019-03-29T07:37:36.796Z,10.87
2019-03-29T07:40:06.491Z,12.03
2019-03-29T07:42:36.090Z,9.10
2019-03-29T07:45:04.700Z,10.37
2019-03-29T07:47:54.061Z,10.53
2019-03-29T07:50:26.987Z,10.27
2019-03-29T07:52:57.650Z,11.00
2019-03-29T07:55:37.076Z,11.60
2019-03-29T07:58:11.415Z,8.07
2019-03-29T08:00:44.008Z,12.77
2019-03-29T08:03:27.462Z,8.87
2019-03-29T08:05:57.481Z,12.77
2019-03-29T08:08:32.082Z,11.77
2019-03-29T08:11:05.144Z,9.90
2019-03-29T08:13:33.364Z,9.50
2019-03-29T08:16:32.997Z,9.03
2019-03-29T08:19:02.850Z,13.83
2019-03-29T08:21:31.699Z,9.33
2019-03-29T08:24:01.261Z,9.20
2019-03-29T08:26:29.604Z,8.13
2019-03-29T08:28:57.813Z,9.10
2019-03-29T08:31:55.357Z,8.03
2019-03-29T08:34:41.078Z,4.03
2019-03-29T08:37:11.340Z,5.33
2019-03-29T08:39:44.197Z,6.10
2019-03-29T08:42:18.638Z,4.83
2019-03-29T08:44:49.228Z,5.10
2019-03-29T08:47:21.782Z,5.87
2019-03-29T08:50:03.756Z,6.27
2019-03-29T08:52:32.496Z,6.17
2019-03-29T08:55:02.790Z,7.63
2019-03-29T08:57:42.630Z,4.13
2019-03-29T09:01:29.081Z,5.13
2019-03-29T09:04:05.129Z,6.53
2019-03-29T09:06:33.231Z,5.33
2019-03-29T09:09:06.810Z,6.00
2019-03-29T09:11:39.088Z,7.43
2019-03-29T09:14:13.716Z,8.23
2019-03-29T09:16:49.277Z,4.70
2019-03-29T09:19:21.834Z,4.87
2019-03-29T09:21:51.730Z,4.23
2019-03-29T09:24:24.250Z,5.27
2019-03-29T09:27:00.240Z,4.30
2019-03-29T09:29:29.877Z,6.50
2019-03-29T09:31:58.485Z,5.93
2019-03-29T09:34:44.046Z,4.83
2019-03-29T09:37:19.082Z,6.20
2019-03-29T09:39:48.262Z,5.53
2019-03-29T09:42:29.009Z,5.00
2019-03-29T09:44:51.300Z,4.87
2019-03-29T09:47:27.621Z,5.27
2019-03-29T09:50:12.035Z,4.37
2019-03-29T09:52:44.279Z,6.50
2019-03-29T09:55:20.642Z,4.47
2019-03-29T09:57:52.023Z,4.20
2019-03-29T10:00:23.743Z,5.83
2019-03-29T10:02:52.689Z,4.37
2019-03-29T10:05:36.595Z,4.10
2019-03-29T10:08:16.630Z,6.10
2019-03-29T10:14:06.298Z,6.70
2019-03-29T10:16:44.345Z,7.00
2019-03-29T10:19:16.959Z,4.90
2019-03-29T10:21:47.870Z,4.20
2019-03-29T10:24:32.520Z,6.67
2019-03-29T10:27:02.126Z,4.07
2019-03-29T10:29:31.473Z,3.10
2019-03-29T10:32:01.112Z,3.53
2019-03-29T10:34:37.207Z,3.10
2019-03-29T10:38:04.306Z,4.83
2019-03-29T10:40:35.596Z,3.20
2019-03-29T10:43:07.362Z,3.77
2019-03-29T10:45:40.718Z,3.10
2019-03-29T10:48:21.059Z,3.20
2019-03-29T10:50:49.357Z,3.00
2019-03-29T10:53:17.638Z,2.40
2019-03-29T10:55:51.876Z,3.17
2019-03-29T10:58:30.866Z,3.50
2019-03-29T11:01:18.863Z,3.93
2019-03-29T11:03:56.454Z,3.23
2019-03-29T11:06:27.619Z,3.00
2019-03-29T11:08:58.967Z,4.10
2019-03-29T11:11:31.984Z,2.83
2019-03-29T11:14:04.940Z,4.10
2019-03-29T11:16:34.615Z,3.70
2019-03-29T11:20:01.706Z,3.50
2019-03-29T11:23:20.708Z,3.40
2019-03-29T11:26:47.630Z,7.90
2019-03-29T11:29:37.977Z,5.17
2019-03-29T11:32:21.288Z,4.93
2019-03-29T11:34:50.610Z,3.33
2019-03-29T11:37:23.483Z,3.83
2019-03-29T11:40:31.880Z,4.10
2019-03-29T11:46:00.939Z,3.97
2019-03-29T11:49:37.060Z,4.63
2019-03-29T11:52:21.611Z,3.63
2019-03-29T11:55:19.091Z,4.70
2019-03-29T11:58:23.736Z,4.00
2019-03-29T12:02:04.401Z,5.63
2019-03-29T12:05:43.459Z,7.93
2019-03-29T12:08:15.538Z,9.53
2019-03-29T12:10:54.666Z,4.33
2019-03-29T12:13:24.402Z,4.33
2019-03-29T12:15:54.016Z,5.33
2019-03-29T12:19:26.437Z,3.90
2019-03-29T12:21:57.736Z,4.33
2019-03-29T12:25:07.846Z,4.57
2019-03-29T12:28:31.222Z,12.53
2019-03-29T12:34:06.106Z,5.90
2019-03-29T12:37:18.975Z,4.10
2019-03-29T12:40:49.492Z,4.13
2019-03-29T12:43:34.454Z,3.30
2019-03-29T12:46:10.074Z,4.70
2019-03-29T12:48:40.083Z,4.60
2019-03-29T12:51:23.224Z,4.47
2019-03-29T12:53:54.567Z,3.50
2019-03-29T12:56:26.117Z,4.83
2019-03-29T12:59:42.837Z,5.73
2019-03-29T13:03:02.390Z,3.73
2019-03-29T13:05:32.455Z,3.93
2019-03-29T13:08:02.434Z,3.67
2019-03-29T13:11:32.269Z,5.20
2019-03-29T13:14:10.425Z,4.50
2019-03-29T13:17:17.881Z,5.17
2019-03-29T13:20:09.406Z,4.87
2019-03-29T13:25:37.868Z,4.60
2019-03-29T13:28:29.964Z,5.30
2019-03-29T13:31:17.599Z,3.53
2019-03-29T13:37:37.827Z,4.13
2019-03-29T13:48:38.565Z,4.83
2019-03-29T15:05:40.985Z,8.80
2019-03-29T16:04:20.540Z,6.30
2019-03-29T16:07:00.364Z,5.20
2019-03-29T16:09:46.363Z,6.83
2019-03-29T16:12:46.766Z,7.13
2019-03-29T16:15:34.929Z,6.33
2019-03-29T16:27:39.552Z,4.53
2019-03-29T16:52:13.267Z,3.83
2019-03-29T16:54:57.075Z,4.40
2019-03-29T17:09:50.960Z,3.97
2019-03-29T18:18:57.525Z,8.20
2019-03-29T18:36:23.664Z,6.23
2019-03-29T18:46:44.462Z,8.10
2019-03-29T18:49:09.905Z,6.50
2019-03-29T18:51:38.733Z,8.30
2019-03-29T18:54:08.594Z,10.07
2019-03-29T18:57:07.649Z,7.50
2019-03-29T19:00:06.425Z,8.90
2019-03-29T19:02:47.137Z,7.53
2019-03-29T19:05:42.746Z,12.50
2019-03-29T19:08:12.595Z,10.43
2019-03-29T19:10:44.406Z,8.57
2019-03-29T19:13:16.930Z,12.50
2019-03-29T19:15:53.901Z,8.77
2019-03-29T19:18:39.896Z,10.27
2019-03-29T19:21:36.298Z,8.23
2019-03-29T19:24:50.627Z,8.97
2019-03-29T19:27:28.220Z,9.93
2019-03-29T19:30:37.843Z,13.27
2019-03-29T19:33:27.207Z,8.10
2019-03-29T19:36:03.093Z,7.90
2019-03-29T19:39:02.263Z,9.97
2019-03-29T19:41:45.092Z,12.47
2019-03-29T19:44:15.705Z,8.23
2019-03-29T19:46:52.816Z,8.83
2019-03-29T19:54:06.751Z,12.93
2019-03-29T19:57:01.836Z,9.77
2019-03-29T19:59:44.162Z,10.43
2019-03-29T20:02:56.837Z,9.63
2019-03-29T20:05:46.659Z,7.80
2019-03-29T20:08:18.215Z,9.37
2019-03-29T20:10:55.243Z,8.80
2019-03-29T20:13:27.660Z,8.03
2019-03-29T20:16:17.707Z,8.90
2019-03-29T20:19:06.154Z,8.97
2019-03-29T20:21:43.296Z,8.67
2019-03-29T20:24:21.284Z,8.13
2019-03-29T20:26:56.920Z,10.67
2019-03-29T20:29:31.690Z,9.20
2019-03-29T20:32:01.640Z,11.03
2019-03-29T20:34:31.610Z,9.03
2019-03-29T20:37:08.828Z,9.37
2019-03-29T20:39:41.896Z,8.73
2019-03-29T20:42:31.106Z,10.43
2019-03-29T20:45:01.754Z,12.43
2019-03-29T20:47:41.913Z,9.93
2019-03-29T20:50:14.824Z,13.87
2019-03-29T20:52:48.073Z,11.03
2019-03-29T20:55:16.980Z,9.13
2019-03-29T20:57:51.424Z,8.87
2019-03-29T21:00:31.856Z,11.47
2019-03-29T21:03:16.345Z,8.90
2019-03-29T21:05:48.558Z,8.53
2019-03-29T21:08:22.514Z,11.60
2019-03-29T21:15:00.876Z,14.30
2019-03-29T21:17:55.886Z,9.33
2019-03-29T21:20:27.477Z,13.03
2019-03-29T21:27:14.133Z,14.83
2019-03-29T21:29:49.317Z,11.77
2019-03-29T21:32:29.807Z,10.83
2019-03-29T21:34:59.852Z,10.90
2019-03-29T21:37:48.593Z,10.47
2019-03-29T21:40:59.352Z,12.97
2019-03-29T21:43:34.207Z,10.23
2019-03-29T21:46:03.726Z,10.23
2019-03-29T21:48:40.546Z,10.83
2019-03-29T21:51:14.170Z,10.83
2019-03-29T21:53:56.239Z,10.90
2019-03-29T21:56:28.347Z,12.00
2019-03-29T21:58:56.635Z,11.70
2019-03-29T22:01:28.492Z,11.40
2019-03-29T22:04:05.828Z,13.37
2019-03-29T22:06:39.412Z,11.53
2019-03-29T22:09:15.805Z,9.27
2019-03-29T22:11:49.241Z,11.93
2019-03-29T22:14:18.639Z,10.47
2019-03-29T22:16:47.997Z,11.33
2019-03-29T22:19:18.101Z,13.93
2019-03-29T22:21:47.586Z,11.60
2019-03-29T22:24:44.363Z,10.93
2019-03-29T22:27:44.332Z,13.27
2019-03-29T22:30:14.711Z,11.40
2019-03-29T22:32:43.750Z,11.07
2019-03-29T22:35:17.222Z,13.37
2019-03-29T22:37:45.616Z,12.23
2019-03-29T22:43:31.378Z,12.33
2019-03-29T22:46:11.056Z,13.37
2019-03-29T22:48:54.482Z,11.20
2019-03-29T22:51:28.245Z,12.97
2019-03-29T22:54:53.882Z,11.67
2019-03-29T22:57:56.624Z,13.40
2019-03-29T23:00:44.889Z,12.07
2019-03-29T23:03:15.261Z,10.23
2019-03-29T23:05:47.178Z,12.13
2019-03-29T23:08:21.590Z,12.33
2019-03-29T23:11:00.695Z,12.60
2019-03-29T23:13:31.381Z,10.73
2019-03-29T23:16:03.908Z,9.43
2019-03-29T23:18:36.253Z,11.63
2019-03-29T23:21:07.118Z,10.77
2019-03-29T23:23:38.510Z,10.03
2019-03-29T23:26:12.929Z,9.77
2019-03-29T23:28:44.769Z,11.67
2019-03-29T23:31:13.510Z,12.67
2019-03-29T23:33:44.959Z,10.60
2019-03-29T23:36:19.176Z,15.17
2019-03-29T23:38:51.277Z,11.53
2019-03-29T23:41:26.181Z,10.83
2019-03-29T23:43:59.240Z,12.17
2019-03-29T23:46:35.668Z,11.23
2019-03-29T23:49:20.413Z,10.57
2019-03-29T23:51:37.965Z,13.37
2019-03-29T23:54:07.626Z,13.23
2019-03-29T23:57:00.738Z,12.27
2019-03-29T23:59:42.647Z,11.00
